sensor_id;sensor_type;location;lat;lon;timestamp;temperature;humidity
1602;DHT22;794;48.592;9.634;2022-10-31T00:00:18;9.20;1.00
1602;DHT22;794;48.592;9.634;2022-10-31T00:05:14;9.30;1.00
1602;DHT22;794;48.592;9.634;2022-10-31T00:10:09;9.30;1.00
1602;DHT22;794;48.592;9.634;2022-10-31T00:15:03;9.00;1.00
1602;DHT22;794;48.592;9.634;2022-10-31T00:22:26;9.10;1.00
1602;DHT22;794;48.592;9.634;2022-10-31T00:37:09;9.00;1.00
1602;DHT22;794;48.592;9.634;2022-10-31T00:39:38;9.00;1.00
1602;DHT22;794;48.592;9.634;2022-10-31T00:44:32;8.80;1.00
1602;DHT22;794;48.592;9.634;2022-10-31T00:46:59;9.00;1.00
1602;DHT22;794;48.592;9.634;2022-10-31T00:49:26;9.00;1.00
1602;DHT22;794;48.592;9.634;2022-10-31T00:56:48;9.10;1.00
1602;DHT22;794;48.592;9.634;2022-10-31T01:04:10;9.20;1.00
1602;DHT22;794;48.592;9.634;2022-10-31T01:14:00;8.80;1.00
1602;DHT22;794;48.592;9.634;2022-10-31T01:18:55;9.00;1.00
1602;DHT22;794;48.592;9.634;2022-10-31T01:21:26;8.70;1.00
1602;DHT22;794;48.592;9.634;2022-10-31T01:23:55;8.80;1.00
1602;DHT22;794;48.592;9.634;2022-10-31T01:26:24;8.40;1.00
1602;DHT22;794;48.592;9.634;2022-10-31T01:28:53;8.70;1.00
1602;DHT22;794;48.592;9.634;2022-10-31T01:31:23;9.00;1.00
1602;DHT22;794;48.592;9.634;2022-10-31T01:36:19;8.50;1.00
1602;DHT22;794;48.592;9.634;2022-10-31T01:38:46;8.50;1.00
1602;DHT22;794;48.592;9.634;2022-10-31T01:41:16;8.60;1.00
1602;DHT22;794;48.592;9.634;2022-10-31T01:43:46;8.90;1.00
1602;DHT22;794;48.592;9.634;2022-10-31T01:46:14;8.60;1.00
1602;DHT22;794;48.592;9.634;2022-10-31T01:48:43;8.60;1.00
1602;DHT22;794;48.592;9.634;2022-10-31T01:51:11;8.70;1.00
1602;DHT22;794;48.592;9.634;2022-10-31T01:53:39;8.70;1.00
1602;DHT22;794;48.592;9.634;2022-10-31T01:56:08;8.90;1.00
1602;DHT22;794;48.592;9.634;2022-10-31T01:58:35;8.70;1.00
1602;DHT22;794;48.592;9.634;2022-10-31T02:01:03;8.80;1.00
1602;DHT22;794;48.592;9.634;2022-10-31T02:03:30;8.90;1.00
1602;DHT22;794;48.592;9.634;2022-10-31T02:05:59;8.70;1.00
1602;DHT22;794;48.592;9.634;2022-10-31T02:08:28;8.60;1.00
1602;DHT22;794;48.592;9.634;2022-10-31T02:10:56;8.70;1.00
1602;DHT22;794;48.592;9.634;2022-10-31T02:13:24;8.90;1.00
1602;DHT22;794;48.592;9.634;2022-10-31T02:15:52;8.60;1.00
1602;DHT22;794;48.592;9.634;2022-10-31T02:18:20;8.50;1.00
1602;DHT22;794;48.592;9.634;2022-10-31T02:20:54;8.70;1.00
1602;DHT22;794;48.592;9.634;2022-10-31T02:23:56;8.70;1.00
1602;DHT22;794;48.592;9.634;2022-10-31T02:26:52;8.80;1.00
1602;DHT22;794;48.592;9.634;2022-10-31T02:32:41;8.80;1.00
1602;DHT22;794;48.592;9.634;2022-10-31T02:35:13;8.60;1.00
1602;DHT22;794;48.592;9.634;2022-10-31T02:37:48;8.70;1.00
1602;DHT22;794;48.592;9.634;2022-10-31T02:40:22;8.90;1.00
1602;DHT22;794;48.592;9.634;2022-10-31T02:42:54;8.60;1.00
1602;DHT22;794;48.592;9.634;2022-10-31T02:45:29;9.00;1.00
1602;DHT22;794;48.592;9.634;2022-10-31T02:48:01;8.70;1.00
1602;DHT22;794;48.592;9.634;2022-10-31T02:50:33;8.60;1.00
1602;DHT22;794;48.592;9.634;2022-10-31T02:53:02;8.80;1.00
1602;DHT22;794;48.592;9.634;2022-10-31T02:55:56;8.80;1.00
1602;DHT22;794;48.592;9.634;2022-10-31T02:58:26;8.60;1.00
1602;DHT22;794;48.592;9.634;2022-10-31T03:01:14;8.60;1.00
1602;DHT22;794;48.592;9.634;2022-10-31T03:03:57;8.70;1.00
1602;DHT22;794;48.592;9.634;2022-10-31T03:06:32;8.50;1.00
1602;DHT22;794;48.592;9.634;2022-10-31T03:09:05;8.50;1.00
1602;DHT22;794;48.592;9.634;2022-10-31T03:11:42;8.80;1.00
1602;DHT22;794;48.592;9.634;2022-10-31T03:14:12;8.80;1.00
1602;DHT22;794;48.592;9.634;2022-10-31T03:16:47;8.80;1.00
1602;DHT22;794;48.592;9.634;2022-10-31T03:19:18;8.90;1.00
1602;DHT22;794;48.592;9.634;2022-10-31T03:21:49;8.80;1.00
1602;DHT22;794;48.592;9.634;2022-10-31T03:24:21;8.80;1.00
1602;DHT22;794;48.592;9.634;2022-10-31T03:26:53;8.80;1.00
1602;DHT22;794;48.592;9.634;2022-10-31T03:29:24;8.80;1.00
1602;DHT22;794;48.592;9.634;2022-10-31T03:31:54;8.60;1.00
1602;DHT22;794;48.592;9.634;2022-10-31T03:34:24;8.80;1.00
1602;DHT22;794;48.592;9.634;2022-10-31T03:36:55;9.50;1.00
1602;DHT22;794;48.592;9.634;2022-10-31T03:41:56;8.50;1.00
1602;DHT22;794;48.592;9.634;2022-10-31T03:44:24;8.70;1.00
1602;DHT22;794;48.592;9.634;2022-10-31T03:46:53;8.60;1.00
1602;DHT22;794;48.592;9.634;2022-10-31T03:49:20;8.50;1.00
1602;DHT22;794;48.592;9.634;2022-10-31T03:51:54;8.50;1.00
1602;DHT22;794;48.592;9.634;2022-10-31T03:54:27;8.70;1.00
1602;DHT22;794;48.592;9.634;2022-10-31T03:56:59;8.80;1.00
1602;DHT22;794;48.592;9.634;2022-10-31T03:59:34;8.80;1.00
1602;DHT22;794;48.592;9.634;2022-10-31T04:02:05;8.80;1.00
1602;DHT22;794;48.592;9.634;2022-10-31T04:04:34;8.50;1.00
1602;DHT22;794;48.592;9.634;2022-10-31T04:07:04;8.90;1.00
1602;DHT22;794;48.592;9.634;2022-10-31T04:09:35;8.50;1.00
1602;DHT22;794;48.592;9.634;2022-10-31T04:12:04;8.90;1.00
1602;DHT22;794;48.592;9.634;2022-10-31T04:14:33;8.60;1.00
1602;DHT22;794;48.592;9.634;2022-10-31T04:17:02;8.70;1.00
1602;DHT22;794;48.592;9.634;2022-10-31T04:19:32;8.60;1.00
1602;DHT22;794;48.592;9.634;2022-10-31T04:22:00;8.40;1.00
1602;DHT22;794;48.592;9.634;2022-10-31T04:24:28;8.70;1.00
1602;DHT22;794;48.592;9.634;2022-10-31T04:26:55;8.80;1.00
1602;DHT22;794;48.592;9.634;2022-10-31T04:31:50;8.40;1.00
1602;DHT22;794;48.592;9.634;2022-10-31T04:39:11;8.40;1.00
1602;DHT22;794;48.592;9.634;2022-10-31T04:41:40;8.40;1.00
1602;DHT22;794;48.592;9.634;2022-10-31T04:44:07;8.60;1.00
1602;DHT22;794;48.592;9.634;2022-10-31T04:46:34;8.40;1.00
1602;DHT22;794;48.592;9.634;2022-10-31T04:49:01;8.40;1.00
1602;DHT22;794;48.592;9.634;2022-10-31T04:58:51;8.30;1.00
1602;DHT22;794;48.592;9.634;2022-10-31T05:01:18;8.40;1.00
1602;DHT22;794;48.592;9.634;2022-10-31T05:03:45;8.20;1.00
1602;DHT22;794;48.592;9.634;2022-10-31T05:16:03;8.10;1.00
1602;DHT22;794;48.592;9.634;2022-10-31T05:18:30;8.20;1.00
1602;DHT22;794;48.592;9.634;2022-10-31T05:33:14;8.30;1.00
1602;DHT22;794;48.592;9.634;2022-10-31T05:35:41;8.00;1.00
1602;DHT22;794;48.592;9.634;2022-10-31T05:38:08;8.70;1.00
1602;DHT22;794;48.592;9.634;2022-10-31T05:40:35;8.30;1.00
1602;DHT22;794;48.592;9.634;2022-10-31T05:43:02;8.20;1.00
1602;DHT22;794;48.592;9.634;2022-10-31T05:47:57;8.20;1.00
1602;DHT22;794;48.592;9.634;2022-10-31T05:50:27;8.30;1.00
1602;DHT22;794;48.592;9.634;2022-10-31T05:52:55;8.30;1.00
1602;DHT22;794;48.592;9.634;2022-10-31T05:55:23;8.30;1.00
1602;DHT22;794;48.592;9.634;2022-10-31T05:57:51;8.30;1.00
1602;DHT22;794;48.592;9.634;2022-10-31T06:00:19;8.30;1.00
1602;DHT22;794;48.592;9.634;2022-10-31T06:05:13;7.90;1.00
1602;DHT22;794;48.592;9.634;2022-10-31T06:07:43;8.10;1.00
1602;DHT22;794;48.592;9.634;2022-10-31T06:12:37;8.10;1.00
1602;DHT22;794;48.592;9.634;2022-10-31T06:15:07;8.30;1.00
1602;DHT22;794;48.592;9.634;2022-10-31T06:17:35;8.00;1.00
1602;DHT22;794;48.592;9.634;2022-10-31T06:20:03;8.20;1.00
1602;DHT22;794;48.592;9.634;2022-10-31T06:22:30;8.20;1.00
1602;DHT22;794;48.592;9.634;2022-10-31T06:24:58;8.30;1.00
1602;DHT22;794;48.592;9.634;2022-10-31T06:32:20;8.40;1.00
1602;DHT22;794;48.592;9.634;2022-10-31T06:42:10;8.30;1.00
1602;DHT22;794;48.592;9.634;2022-10-31T06:44:37;8.50;1.00
1602;DHT22;794;48.592;9.634;2022-10-31T06:47:05;9.60;1.00
1602;DHT22;794;48.592;9.634;2022-10-31T06:59:23;9.00;1.00
1602;DHT22;794;48.592;9.634;2022-10-31T07:06:46;8.90;1.00
1602;DHT22;794;48.592;9.634;2022-10-31T07:09:13;9.20;1.00
1602;DHT22;794;48.592;9.634;2022-10-31T07:14:07;9.20;1.00
1602;DHT22;794;48.592;9.634;2022-10-31T07:16:36;9.90;1.00
1602;DHT22;794;48.592;9.634;2022-10-31T07:19:05;9.90;1.00
1602;DHT22;794;48.592;9.634;2022-10-31T07:21:34;10.00;1.00
1602;DHT22;794;48.592;9.634;2022-10-31T07:24:02;10.10;1.00
1602;DHT22;794;48.592;9.634;2022-10-31T07:28:57;10.20;1.00
1602;DHT22;794;48.592;9.634;2022-10-31T07:31:24;10.60;1.00
1602;DHT22;794;48.592;9.634;2022-10-31T07:33:53;11.00;1.00
1602;DHT22;794;48.592;9.634;2022-10-31T07:36:20;11.30;1.00
1602;DHT22;794;48.592;9.634;2022-10-31T07:38:47;11.70;1.00
1602;DHT22;794;48.592;9.634;2022-10-31T07:43:41;11.50;1.00
1602;DHT22;794;48.592;9.634;2022-10-31T07:46:10;11.90;1.00
1602;DHT22;794;48.592;9.634;2022-10-31T07:51:08;12.10;1.00
1602;DHT22;794;48.592;9.634;2022-10-31T07:53:35;12.20;1.00
1602;DHT22;794;48.592;9.634;2022-10-31T07:56:02;13.00;1.00
1602;DHT22;794;48.592;9.634;2022-10-31T07:58:37;12.60;1.00
1602;DHT22;794;48.592;9.634;2022-10-31T08:01:08;12.80;1.00
1602;DHT22;794;48.592;9.634;2022-10-31T08:03:35;12.80;1.00
1602;DHT22;794;48.592;9.634;2022-10-31T08:06:02;13.30;1.00
1602;DHT22;794;48.592;9.634;2022-10-31T08:08:34;13.30;1.00
1602;DHT22;794;48.592;9.634;2022-10-31T08:11:05;13.80;1.00
1602;DHT22;794;48.592;9.634;2022-10-31T08:13:40;13.70;1.00
1602;DHT22;794;48.592;9.634;2022-10-31T08:16:09;14.70;1.00
1602;DHT22;794;48.592;9.634;2022-10-31T08:18:39;14.60;1.00
1602;DHT22;794;48.592;9.634;2022-10-31T08:21:09;14.50;1.00
1602;DHT22;794;48.592;9.634;2022-10-31T08:23:45;14.30;1.00
1602;DHT22;794;48.592;9.634;2022-10-31T08:26:12;15.30;1.00
1602;DHT22;794;48.592;9.634;2022-10-31T08:28:39;15.30;1.00
1602;DHT22;794;48.592;9.634;2022-10-31T08:31:08;15.60;1.00
1602;DHT22;794;48.592;9.634;2022-10-31T08:33:36;16.00;1.00
1602;DHT22;794;48.592;9.634;2022-10-31T08:36:06;16.80;1.00
1602;DHT22;794;48.592;9.634;2022-10-31T08:41:07;17.10;1.00
1602;DHT22;794;48.592;9.634;2022-10-31T08:43:40;17.30;1.00
1602;DHT22;794;48.592;9.634;2022-10-31T08:46:07;17.20;1.00
1602;DHT22;794;48.592;9.634;2022-10-31T08:48:40;17.30;1.00
1602;DHT22;794;48.592;9.634;2022-10-31T08:51:09;18.80;1.00
1602;DHT22;794;48.592;9.634;2022-10-31T08:53:36;20.20;1.00
1602;DHT22;794;48.592;9.634;2022-10-31T08:56:08;17.50;1.00
1602;DHT22;794;48.592;9.634;2022-10-31T08:58:37;18.10;1.00
1602;DHT22;794;48.592;9.634;2022-10-31T09:01:05;17.50;1.00
1602;DHT22;794;48.592;9.634;2022-10-31T09:03:31;17.40;1.00
1602;DHT22;794;48.592;9.634;2022-10-31T09:06:04;17.60;1.00
1602;DHT22;794;48.592;9.634;2022-10-31T09:08:35;17.70;1.00
1602;DHT22;794;48.592;9.634;2022-10-31T09:11:03;17.80;1.00
1602;DHT22;794;48.592;9.634;2022-10-31T09:13:31;17.80;1.00
1602;DHT22;794;48.592;9.634;2022-10-31T09:18:26;18.00;1.00
1602;DHT22;794;48.592;9.634;2022-10-31T09:20:58;18.30;1.00
1602;DHT22;794;48.592;9.634;2022-10-31T09:23:25;18.50;1.00
1602;DHT22;794;48.592;9.634;2022-10-31T09:28:23;18.70;1.00
1602;DHT22;794;48.592;9.634;2022-10-31T09:30:54;18.90;1.00
1602;DHT22;794;48.592;9.634;2022-10-31T09:33:21;19.00;1.00
1602;DHT22;794;48.592;9.634;2022-10-31T09:38:17;19.10;1.00
1602;DHT22;794;48.592;9.634;2022-10-31T09:40:47;19.10;1.00
1602;DHT22;794;48.592;9.634;2022-10-31T09:43:18;19.00;1.00
1602;DHT22;794;48.592;9.634;2022-10-31T09:45:56;18.90;1.00
1602;DHT22;794;48.592;9.634;2022-10-31T09:48:35;19.40;1.00
1602;DHT22;794;48.592;9.634;2022-10-31T09:51:05;18.60;1.00
1602;DHT22;794;48.592;9.634;2022-10-31T09:53:37;18.60;1.00
1602;DHT22;794;48.592;9.634;2022-10-31T09:56:07;18.70;1.00
1602;DHT22;794;48.592;9.634;2022-10-31T09:58:41;18.60;1.00
1602;DHT22;794;48.592;9.634;2022-10-31T10:01:23;21.80;1.00
1602;DHT22;794;48.592;9.634;2022-10-31T10:03:57;19.00;1.00
1602;DHT22;794;48.592;9.634;2022-10-31T10:06:27;19.10;1.00
1602;DHT22;794;48.592;9.634;2022-10-31T10:08:55;19.10;1.00
1602;DHT22;794;48.592;9.634;2022-10-31T10:11:42;19.30;1.00
1602;DHT22;794;48.592;9.634;2022-10-31T10:14:34;19.50;1.00
1602;DHT22;794;48.592;9.634;2022-10-31T10:17:15;19.50;1.00
1602;DHT22;794;48.592;9.634;2022-10-31T10:19:53;19.60;1.00
1602;DHT22;794;48.592;9.634;2022-10-31T10:22:26;19.70;1.00
1602;DHT22;794;48.592;9.634;2022-10-31T10:25:15;19.70;1.00
1602;DHT22;794;48.592;9.634;2022-10-31T10:27:49;19.80;1.00
1602;DHT22;794;48.592;9.634;2022-10-31T10:30:20;19.80;1.00
1602;DHT22;794;48.592;9.634;2022-10-31T10:32:52;19.90;1.00
1602;DHT22;794;48.592;9.634;2022-10-31T10:35:24;20.00;1.00
1602;DHT22;794;48.592;9.634;2022-10-31T10:37:56;19.90;1.00
1602;DHT22;794;48.592;9.634;2022-10-31T10:40:27;19.90;1.00
1602;DHT22;794;48.592;9.634;2022-10-31T10:43:00;19.80;1.00
1602;DHT22;794;48.592;9.634;2022-10-31T10:45:50;17.10;1.00
1602;DHT22;794;48.592;9.634;2022-10-31T10:48:42;20.00;1.00
1602;DHT22;794;48.592;9.634;2022-10-31T10:51:22;20.20;1.00
1602;DHT22;794;48.592;9.634;2022-10-31T10:54:06;20.20;1.00
1602;DHT22;794;48.592;9.634;2022-10-31T10:56:51;20.30;1.00
1602;DHT22;794;48.592;9.634;2022-10-31T10:59:21;20.40;1.00
1602;DHT22;794;48.592;9.634;2022-10-31T11:01:50;20.20;1.00
1602;DHT22;794;48.592;9.634;2022-10-31T11:04:33;20.10;1.00
1602;DHT22;794;48.592;9.634;2022-10-31T11:07:01;20.20;1.00
1602;DHT22;794;48.592;9.634;2022-10-31T11:09:29;20.40;1.00
1602;DHT22;794;48.592;9.634;2022-10-31T11:11:56;20.60;1.00
1602;DHT22;794;48.592;9.634;2022-10-31T11:14:26;20.70;1.00
1602;DHT22;794;48.592;9.634;2022-10-31T11:17:06;20.70;1.00
1602;DHT22;794;48.592;9.634;2022-10-31T11:19:37;20.80;1.00
1602;DHT22;794;48.592;9.634;2022-10-31T11:22:08;20.90;1.00
1602;DHT22;794;48.592;9.634;2022-10-31T11:24:43;21.20;1.00
1602;DHT22;794;48.592;9.634;2022-10-31T11:27:14;21.30;1.00
1602;DHT22;794;48.592;9.634;2022-10-31T11:29:42;21.50;1.00
1602;DHT22;794;48.592;9.634;2022-10-31T11:32:21;21.60;1.00
1602;DHT22;794;48.592;9.634;2022-10-31T11:34:53;21.60;1.00
1602;DHT22;794;48.592;9.634;2022-10-31T11:37:23;21.70;1.00
1602;DHT22;794;48.592;9.634;2022-10-31T11:39:53;21.60;1.00
1602;DHT22;794;48.592;9.634;2022-10-31T11:42:22;21.60;1.00
1602;DHT22;794;48.592;9.634;2022-10-31T11:44:50;21.30;1.00
1602;DHT22;794;48.592;9.634;2022-10-31T11:47:27;21.40;1.00
1602;DHT22;794;48.592;9.634;2022-10-31T11:49:57;21.30;1.00
1602;DHT22;794;48.592;9.634;2022-10-31T11:52:30;21.30;1.00
1602;DHT22;794;48.592;9.634;2022-10-31T11:54:59;21.10;1.00
1602;DHT22;794;48.592;9.634;2022-10-31T11:57:29;21.00;1.00
1602;DHT22;794;48.592;9.634;2022-10-31T11:59:58;20.90;1.00
1602;DHT22;794;48.592;9.634;2022-10-31T12:02:25;20.90;1.00
1602;DHT22;794;48.592;9.634;2022-10-31T12:05:00;21.00;1.00
1602;DHT22;794;48.592;9.634;2022-10-31T12:07:29;21.00;1.00
1602;DHT22;794;48.592;9.634;2022-10-31T12:09:56;21.00;1.00
1602;DHT22;794;48.592;9.634;2022-10-31T12:12:35;21.20;1.00
1602;DHT22;794;48.592;9.634;2022-10-31T12:15:31;21.30;1.00
1602;DHT22;794;48.592;9.634;2022-10-31T12:18:21;21.40;1.00
1602;DHT22;794;48.592;9.634;2022-10-31T12:20:56;21.50;1.00
1602;DHT22;794;48.592;9.634;2022-10-31T12:23:39;21.60;1.00
1602;DHT22;794;48.592;9.634;2022-10-31T12:26:16;21.60;1.00
1602;DHT22;794;48.592;9.634;2022-10-31T12:28:59;21.70;1.00
1602;DHT22;794;48.592;9.634;2022-10-31T12:31:42;21.60;1.00
1602;DHT22;794;48.592;9.634;2022-10-31T12:34:48;21.40;1.00
1602;DHT22;794;48.592;9.634;2022-10-31T12:37:32;21.30;1.00
1602;DHT22;794;48.592;9.634;2022-10-31T12:40:19;19.20;1.00
1602;DHT22;794;48.592;9.634;2022-10-31T12:42:57;21.20;1.00
1602;DHT22;794;48.592;9.634;2022-10-31T12:45:39;21.00;1.00
1602;DHT22;794;48.592;9.634;2022-10-31T12:48:33;20.90;1.00
1602;DHT22;794;48.592;9.634;2022-10-31T12:51:12;20.50;1.00
1602;DHT22;794;48.592;9.634;2022-10-31T12:53:55;20.70;1.00
1602;DHT22;794;48.592;9.634;2022-10-31T12:56:35;20.70;1.00
1602;DHT22;794;48.592;9.634;2022-10-31T12:59:10;20.80;1.00
1602;DHT22;794;48.592;9.634;2022-10-31T13:01:45;20.90;1.00
1602;DHT22;794;48.592;9.634;2022-10-31T13:04:17;20.80;1.00
1602;DHT22;794;48.592;9.634;2022-10-31T13:06:48;20.80;1.00
1602;DHT22;794;48.592;9.634;2022-10-31T13:09:20;20.80;1.00
1602;DHT22;794;48.592;9.634;2022-10-31T13:11:55;20.80;1.00
1602;DHT22;794;48.592;9.634;2022-10-31T13:14:27;20.70;1.00
1602;DHT22;794;48.592;9.634;2022-10-31T13:16:57;20.10;1.00
1602;DHT22;794;48.592;9.634;2022-10-31T13:19:30;20.40;1.00
1602;DHT22;794;48.592;9.634;2022-10-31T13:22:02;20.40;1.00
1602;DHT22;794;48.592;9.634;2022-10-31T13:24:35;20.40;1.00
1602;DHT22;794;48.592;9.634;2022-10-31T13:27:13;20.40;1.00
1602;DHT22;794;48.592;9.634;2022-10-31T13:29:46;20.40;1.00
1602;DHT22;794;48.592;9.634;2022-10-31T13:32:17;20.30;1.00
1602;DHT22;794;48.592;9.634;2022-10-31T13:34:46;20.30;1.00
1602;DHT22;794;48.592;9.634;2022-10-31T13:37:19;20.30;1.00
1602;DHT22;794;48.592;9.634;2022-10-31T13:40:06;20.30;1.00
1602;DHT22;794;48.592;9.634;2022-10-31T13:42:54;20.10;1.00
1602;DHT22;794;48.592;9.634;2022-10-31T13:45:25;20.00;1.00
1602;DHT22;794;48.592;9.634;2022-10-31T13:47:59;20.00;1.00
1602;DHT22;794;48.592;9.634;2022-10-31T13:50:27;20.00;1.00
1602;DHT22;794;48.592;9.634;2022-10-31T13:53:14;19.30;1.00
1602;DHT22;794;48.592;9.634;2022-10-31T13:55:48;19.90;1.00
1602;DHT22;794;48.592;9.634;2022-10-31T13:58:23;19.90;1.00
1602;DHT22;794;48.592;9.634;2022-10-31T14:01:10;19.80;1.00
1602;DHT22;794;48.592;9.634;2022-10-31T14:03:43;19.90;1.00
1602;DHT22;794;48.592;9.634;2022-10-31T14:06:11;19.90;1.00
1602;DHT22;794;48.592;9.634;2022-10-31T14:08:41;19.80;1.00
1602;DHT22;794;48.592;9.634;2022-10-31T14:11:22;20.00;1.00
1602;DHT22;794;48.592;9.634;2022-10-31T14:13:52;20.00;1.00
1602;DHT22;794;48.592;9.634;2022-10-31T14:16:23;20.20;1.00
1602;DHT22;794;48.592;9.634;2022-10-31T14:18:58;20.40;1.00
1602;DHT22;794;48.592;9.634;2022-10-31T14:21:29;20.60;1.00
1602;DHT22;794;48.592;9.634;2022-10-31T14:23:57;20.80;1.00
1602;DHT22;794;48.592;9.634;2022-10-31T14:26:38;20.70;1.00
1602;DHT22;794;48.592;9.634;2022-10-31T14:29:27;20.90;1.00
1602;DHT22;794;48.592;9.634;2022-10-31T14:32:04;21.00;1.00
1602;DHT22;794;48.592;9.634;2022-10-31T14:34:38;21.00;1.00
1602;DHT22;794;48.592;9.634;2022-10-31T14:37:31;20.90;1.00
1602;DHT22;794;48.592;9.634;2022-10-31T14:40:15;20.90;1.00
1602;DHT22;794;48.592;9.634;2022-10-31T14:43:28;20.40;1.00
1602;DHT22;794;48.592;9.634;2022-10-31T14:46:01;19.90;1.00
1602;DHT22;794;48.592;9.634;2022-10-31T14:48:52;19.60;1.00
1602;DHT22;794;48.592;9.634;2022-10-31T14:51:29;19.20;1.00
1602;DHT22;794;48.592;9.634;2022-10-31T14:53:59;19.10;1.00
1602;DHT22;794;48.592;9.634;2022-10-31T14:56:30;19.10;1.00
1602;DHT22;794;48.592;9.634;2022-10-31T14:59:01;18.90;1.00
1602;DHT22;794;48.592;9.634;2022-10-31T15:01:31;18.80;1.00
1602;DHT22;794;48.592;9.634;2022-10-31T15:04:03;18.60;1.00
1602;DHT22;794;48.592;9.634;2022-10-31T15:06:38;18.30;1.00
1602;DHT22;794;48.592;9.634;2022-10-31T15:09:21;18.20;1.00
1602;DHT22;794;48.592;9.634;2022-10-31T15:11:48;18.00;1.00
1602;DHT22;794;48.592;9.634;2022-10-31T15:14:25;17.90;1.00
1602;DHT22;794;48.592;9.634;2022-10-31T15:16:54;17.50;1.00
1602;DHT22;794;48.592;9.634;2022-10-31T15:19:25;17.40;1.00
1602;DHT22;794;48.592;9.634;2022-10-31T15:21:54;17.10;1.00
1602;DHT22;794;48.592;9.634;2022-10-31T15:24:32;17.00;1.00
1602;DHT22;794;48.592;9.634;2022-10-31T15:27:05;16.80;1.00
1602;DHT22;794;48.592;9.634;2022-10-31T15:29:52;16.60;1.00
1602;DHT22;794;48.592;9.634;2022-10-31T15:32:21;16.40;1.00
1602;DHT22;794;48.592;9.634;2022-10-31T15:34:50;16.10;1.00
1602;DHT22;794;48.592;9.634;2022-10-31T15:37:19;15.70;1.00
1602;DHT22;794;48.592;9.634;2022-10-31T15:39:47;16.00;1.00
1602;DHT22;794;48.592;9.634;2022-10-31T15:42:28;15.80;1.00
1602;DHT22;794;48.592;9.634;2022-10-31T15:45:13;15.40;1.00
1602;DHT22;794;48.592;9.634;2022-10-31T15:47:50;15.50;1.00
1602;DHT22;794;48.592;9.634;2022-10-31T15:50:22;15.40;1.00
1602;DHT22;794;48.592;9.634;2022-10-31T15:52:55;15.30;1.00
1602;DHT22;794;48.592;9.634;2022-10-31T15:55:24;15.20;1.00
1602;DHT22;794;48.592;9.634;2022-10-31T15:57:58;15.10;1.00
1602;DHT22;794;48.592;9.634;2022-10-31T16:00:29;15.00;1.00
1602;DHT22;794;48.592;9.634;2022-10-31T16:03:04;14.80;1.00
1602;DHT22;794;48.592;9.634;2022-10-31T16:05:37;14.70;1.00
1602;DHT22;794;48.592;9.634;2022-10-31T16:08:25;14.50;1.00
1602;DHT22;794;48.592;9.634;2022-10-31T16:10:53;14.40;1.00
1602;DHT22;794;48.592;9.634;2022-10-31T16:13:25;14.40;1.00
1602;DHT22;794;48.592;9.634;2022-10-31T16:16:01;14.60;1.00
1602;DHT22;794;48.592;9.634;2022-10-31T16:18:34;14.20;1.00
1602;DHT22;794;48.592;9.634;2022-10-31T16:21:03;14.10;1.00
1602;DHT22;794;48.592;9.634;2022-10-31T16:23:31;14.00;1.00
1602;DHT22;794;48.592;9.634;2022-10-31T16:25:58;13.90;1.00
1602;DHT22;794;48.592;9.634;2022-10-31T16:28:26;13.90;1.00
1602;DHT22;794;48.592;9.634;2022-10-31T16:30:59;13.50;1.00
1602;DHT22;794;48.592;9.634;2022-10-31T16:33:28;13.70;1.00
1602;DHT22;794;48.592;9.634;2022-10-31T16:35:59;13.80;1.00
1602;DHT22;794;48.592;9.634;2022-10-31T16:38:29;13.30;1.00
1602;DHT22;794;48.592;9.634;2022-10-31T16:40:57;13.10;1.00
1602;DHT22;794;48.592;9.634;2022-10-31T16:43:24;13.20;1.00
1602;DHT22;794;48.592;9.634;2022-10-31T16:45:52;13.00;1.00
1602;DHT22;794;48.592;9.634;2022-10-31T16:48:22;13.00;1.00
1602;DHT22;794;48.592;9.634;2022-10-31T16:50:50;13.10;1.00
1602;DHT22;794;48.592;9.634;2022-10-31T16:53:25;13.10;1.00
1602;DHT22;794;48.592;9.634;2022-10-31T16:55:55;13.10;1.00
1602;DHT22;794;48.592;9.634;2022-10-31T16:58:24;13.00;1.00
1602;DHT22;794;48.592;9.634;2022-10-31T17:00:52;12.70;1.00
1602;DHT22;794;48.592;9.634;2022-10-31T17:03:21;12.40;1.00
1602;DHT22;794;48.592;9.634;2022-10-31T17:05:48;12.30;1.00
1602;DHT22;794;48.592;9.634;2022-10-31T17:08:16;12.30;1.00
1602;DHT22;794;48.592;9.634;2022-10-31T17:10:44;12.30;1.00
1602;DHT22;794;48.592;9.634;2022-10-31T17:13:19;12.30;1.00
1602;DHT22;794;48.592;9.634;2022-10-31T17:15:49;12.40;1.00
1602;DHT22;794;48.592;9.634;2022-10-31T17:18:17;12.30;1.00
1602;DHT22;794;48.592;9.634;2022-10-31T17:20:46;12.10;1.00
1602;DHT22;794;48.592;9.634;2022-10-31T17:23:14;12.20;1.00
1602;DHT22;794;48.592;9.634;2022-10-31T17:25:42;12.00;1.00
1602;DHT22;794;48.592;9.634;2022-10-31T17:28:11;12.50;1.00
1602;DHT22;794;48.592;9.634;2022-10-31T17:30:42;11.90;1.00
1602;DHT22;794;48.592;9.634;2022-10-31T17:33:10;12.10;1.00
1602;DHT22;794;48.592;9.634;2022-10-31T17:38:06;11.90;1.00
1602;DHT22;794;48.592;9.634;2022-10-31T17:40:33;12.10;1.00
1602;DHT22;794;48.592;9.634;2022-10-31T17:43:02;12.00;1.00
1602;DHT22;794;48.592;9.634;2022-10-31T17:45:30;11.80;1.00
1602;DHT22;794;48.592;9.634;2022-10-31T17:47:58;11.50;1.00
1602;DHT22;794;48.592;9.634;2022-10-31T17:50:26;11.80;1.00
1602;DHT22;794;48.592;9.634;2022-10-31T17:52:53;11.90;1.00
1602;DHT22;794;48.592;9.634;2022-10-31T17:55:26;11.70;1.00
1602;DHT22;794;48.592;9.634;2022-10-31T17:57:54;11.80;1.00
1602;DHT22;794;48.592;9.634;2022-10-31T18:00:21;11.60;1.00
1602;DHT22;794;48.592;9.634;2022-10-31T18:02:49;11.40;1.00
1602;DHT22;794;48.592;9.634;2022-10-31T18:05:16;11.50;1.00
1602;DHT22;794;48.592;9.634;2022-10-31T18:07:44;11.60;1.00
1602;DHT22;794;48.592;9.634;2022-10-31T18:12:40;11.30;1.00
1602;DHT22;794;48.592;9.634;2022-10-31T18:15:10;11.20;1.00
1602;DHT22;794;48.592;9.634;2022-10-31T18:17:37;11.70;1.00
1602;DHT22;794;48.592;9.634;2022-10-31T18:20:05;11.10;1.00
1602;DHT22;794;48.592;9.634;2022-10-31T18:22:32;11.00;1.00
1602;DHT22;794;48.592;9.634;2022-10-31T18:25:00;11.00;1.00
1602;DHT22;794;48.592;9.634;2022-10-31T18:30:15;11.30;1.00
1602;DHT22;794;48.592;9.634;2022-10-31T18:32:43;11.00;1.00
1602;DHT22;794;48.592;9.634;2022-10-31T18:35:10;11.00;1.00
1602;DHT22;794;48.592;9.634;2022-10-31T18:40:06;11.10;1.00
1602;DHT22;794;48.592;9.634;2022-10-31T18:45:00;11.20;1.00
1602;DHT22;794;48.592;9.634;2022-10-31T18:47:29;11.20;1.00
1602;DHT22;794;48.592;9.634;2022-10-31T18:49:56;11.30;1.00
1602;DHT22;794;48.592;9.634;2022-10-31T18:52:23;11.10;1.00
1602;DHT22;794;48.592;9.634;2022-10-31T18:54:50;11.30;1.00
1602;DHT22;794;48.592;9.634;2022-10-31T18:57:17;11.50;1.00
1602;DHT22;794;48.592;9.634;2022-10-31T18:59:44;11.40;1.00
1602;DHT22;794;48.592;9.634;2022-10-31T19:02:11;11.30;1.00
1602;DHT22;794;48.592;9.634;2022-10-31T19:04:41;11.50;1.00
1602;DHT22;794;48.592;9.634;2022-10-31T19:07:08;11.30;1.00
1602;DHT22;794;48.592;9.634;2022-10-31T19:09:35;11.60;1.00
1602;DHT22;794;48.592;9.634;2022-10-31T19:12:02;11.60;1.00
1602;DHT22;794;48.592;9.634;2022-10-31T19:14:30;11.50;1.00
1602;DHT22;794;48.592;9.634;2022-10-31T19:16:57;11.40;1.00
1602;DHT22;794;48.592;9.634;2022-10-31T19:21:53;11.10;1.00
1602;DHT22;794;48.592;9.634;2022-10-31T19:24:20;11.60;1.00
1602;DHT22;794;48.592;9.634;2022-10-31T19:26:47;11.20;1.00
1602;DHT22;794;48.592;9.634;2022-10-31T19:29:14;11.70;1.00
1602;DHT22;794;48.592;9.634;2022-10-31T19:31:43;11.20;1.00
1602;DHT22;794;48.592;9.634;2022-10-31T19:36:37;10.80;1.00
1602;DHT22;794;48.592;9.634;2022-10-31T19:39:05;11.00;1.00
1602;DHT22;794;48.592;9.634;2022-10-31T19:41:32;11.20;1.00
1602;DHT22;794;48.592;9.634;2022-10-31T19:46:28;10.70;1.00
1602;DHT22;794;48.592;9.634;2022-10-31T19:48:55;10.80;1.00
1602;DHT22;794;48.592;9.634;2022-10-31T19:51:22;10.90;1.00
1602;DHT22;794;48.592;9.634;2022-10-31T19:56:19;10.60;1.00